Latest Coastal Weather Observations for Hervey Bay

IDQ60701

Issued at 10:05 pm EST Friday 28 November 2014 (issued every 10 minutes, with the page automatically refreshed every 10 minutes)

About coastal observations | Map of coastal stations | Coastal observations for QLD | Marine services | Other Formats
Station Details ID: 040405 Name: HERVEY BAY AIRPORT Lat: -25.32 Lon: 152.88 Height: 12.98 m
Data from the previous 72 hours. | See also: Recent months at Hervey Bay
Date/Time
EST
Temp

°C
Wind Pressure Rain
since 9am
mm
Weather Cloud Vis
km
Sea
Height
m
Swell
Dir
 
Speed
knots
Gust
knots
hPa Trend Height
m
Period
s
Dir
28/10:00pm 23.5 SE 10 17 1017.7 - 0.0 - Partly cloudy 10 - - - -
28/09:30pm 23.7 SE 12 17 1017.8 - 0.0 - Partly cloudy 10 - - - -
28/09:00pm 23.7 ESE 10 17 1017.3 - 0.0 - - 10 - - - -
28/08:30pm 23.7 SE 10 16 1016.9 - 0.0 - - 10 - - - -
28/08:00pm 23.8 SE 9 17 1017.1 - 0.0 - - 10 - - - -
28/07:30pm 24.0 SE 11 16 1016.9 - 0.0 - - 10 - - - -
28/07:00pm 24.1 ESE 12 17 1016.6 - 0.0 - Partly cloudy 10 - - - -
28/06:30pm 24.3 ESE 10 19 1016.5 - 0.0 - Partly cloudy 10 - - - -
28/06:00pm 24.5 ESE 13 19 1016.4 - 0.0 - Partly cloudy 10 - - - -
28/05:30pm 25.0 ESE 15 19 1016.1 - 0.0 - Partly cloudy 10 - - - -
28/05:00pm 25.8 SE 12 21 1015.9 - 0.0 - Partly cloudy 10 - - - -
28/04:30pm 25.7 ESE 13 18 1015.6 - 0.0 - Partly cloudy 10 - - - -
28/04:00pm 26.0 SE 11 16 1015.7 - 0.0 - Cloudy 10 - - - -
28/03:30pm 26.5 SE 12 18 1015.8 - 0.0 - Partly cloudy 10 - - - -
28/03:00pm 27.2 SE 11 16 1015.9 - 0.0 - Mostly cloudy 10 - - - -
28/02:30pm 26.9 ESE 13 18 1015.8 - 0.0 - Partly cloudy 10 - - - -
28/02:00pm 27.1 SE 13 19 1015.9 - 0.0 - Partly cloudy 10 - - - -
28/01:30pm 27.3 ESE 13 17 1016.0 - 0.0 - Partly cloudy 10 - - - -
28/01:00pm 29.5 ESE 13 19 1016.1 - 0.0 - - 10 - - - -
28/12:30pm 28.3 SE 11 18 1016.4 - 0.0 - Partly cloudy 10 - - - -
28/12:00pm 29.1 ESE 13 20 1016.6 - 0.0 - Mostly clear 10 - - - -
28/11:30am 27.8 ESE 11 16 1016.9 - 0.0 - Partly cloudy 10 - - - -
28/11:00am 27.9 ESE 11 16 1016.9 - 0.0 - Partly cloudy 10 - - - -
28/10:30am 28.5 ESE 11 17 1016.9 - 0.0 - Partly cloudy 10 - - - -
28/10:00am 28.0 ESE 10 15 1017.0 - 0.0 - Partly cloudy 10 - - - -
28/09:30am 28.4 ESE 10 15 1017.0 - 0.0 - Partly cloudy 10 - - - -
28/09:00am 28.1 E 10 15 1016.9 - 0.0 - - 10 - - - -
28/08:30am 26.9 ESE 10 14 1016.9 - 0.0 - - 10 - - - -
28/08:00am 26.7 ESE 10 14 1016.9 - 0.0 - Partly cloudy 10 - - - -
28/07:30am 25.6 ESE 9 13 1016.8 - 0.0 - Partly cloudy 10 - - - -
28/07:00am 25.0 SE 7 11 1016.8 - 0.0 - Cloudy 10 - - - -
28/06:30am 25.0 ESE 7 12 1016.5 - 0.0 - Partly cloudy 10 - - - -
28/06:00am 24.4 ESE 8 11 1015.9 - 0.0 - Mostly clear 10 - - - -
28/05:30am 24.2 ESE 7 11 1015.9 - 0.0 - Partly cloudy 10 - - - -
28/05:00am 23.4 ESE 7 11 1015.6 - 0.0 - Partly cloudy 10 - - - -
28/04:30am 23.7 ESE 7 11 1015.4 - 0.0 - Partly cloudy 10 - - - -
28/04:00am 23.3 ESE 5 8 1015.0 - 0.0 - - 10 - - - -
28/03:30am 23.6 E 8 12 1014.6 - 0.0 - Partly cloudy 10 - - - -
28/03:00am 23.7 ESE 7 11 1014.6 - 0.0 - Mostly clear 10 - - - -
28/02:30am 23.6 ESE 8 10 1014.7 - 0.0 - Partly cloudy 10 - - - -
28/02:00am 23.5 ESE 7 11 1014.9 - 0.0 - Partly cloudy 10 - - - -
28/01:30am 24.1 E 8 10 1014.9 - 0.0 - Partly cloudy 10 - - - -
28/01:00am 24.2 ESE 8 10 1014.9 - 0.0 - Partly cloudy 10 - - - -
28/12:30am 24.1 ESE 8 11 1015.3 - 0.0 - Partly cloudy 10 - - - -
28/12:00am 23.9 ESE 7 11 1015.7 - 0.0 - Mostly clear 10 - - - -
 
Date/Time
EST
Temp

°C
Wind Pressure Rain
since 9am
mm
Weather Cloud Vis
km
Sea
Height
m
Swell
Dir
 
Speed
knots
Gust
knots
hPa Trend Height
m
Period
s
Dir
27/11:30pm 24.1 ESE 8 11 1015.8 - 0.0 - Partly cloudy 10 - - - -
27/11:00pm 23.9 ESE 7 11 1016.2 - 0.0 - Partly cloudy 10 - - - -
27/10:30pm 24.2 E 11 14 1016.0 - 0.0 - Partly cloudy 10 - - - -
27/10:00pm 24.3 ESE 8 12 1016.3 - 0.0 - Partly cloudy 10 - - - -
27/09:30pm 23.9 ESE 6 9 1016.5 - 0.0 - Partly cloudy 10 - - - -
27/09:00pm 24.2 E 7 9 1016.3 - 0.0 - - 10 - - - -
27/08:30pm 24.4 E 9 11 1016.3 - 0.0 - - 10 - - - -
27/08:00pm 24.5 E 8 11 1015.6 - 0.0 - - 10 - - - -
27/07:30pm 24.7 E 9 14 1015.0 - 0.0 - - 10 - - - -
27/07:00pm 25.0 E 10 14 1014.7 - 0.0 - - 10 - - - -
27/06:30pm 25.6 E 10 13 1014.3 - 0.0 - - 10 - - - -
27/06:00pm 26.4 E 11 14 1013.8 - 0.0 - - 10 - - - -
27/05:30pm 27.5 E 11 13 1013.1 - 0.0 - - 10 - - - -
27/05:00pm 28.3 NNE 8 11 1012.7 - 0.0 - - 10 - - - -
27/04:30pm 28.4 NNE 9 13 1012.5 - 0.0 - - 10 - - - -
27/04:00pm 28.8 NNE 10 13 1012.5 - 0.0 - - 10 - - - -
27/03:30pm 29.1 NNE 10 14 1012.6 - 0.0 - - 10 - - - -
27/03:00pm 29.3 N 10 13 1012.7 - 0.0 - - 10 - - - -
27/02:30pm 29.6 ENE 11 13 1013.0 - 0.0 - - 10 - - - -
27/02:00pm 29.2 NE 11 16 1013.4 - 0.0 - - 10 - - - -
27/01:30pm 29.8 NE 9 13 1013.6 - 0.0 - - 10 - - - -
27/01:00pm 29.6 ENE 9 14 1013.9 - 0.0 - - 10 - - - -
27/12:30pm 30.0 ENE 8 11 1014.2 - 0.0 - - 10 - - - -
27/12:00pm 29.8 ENE 9 14 1014.5 - 0.0 - - 10 - - - -
27/11:30am 30.0 ENE 8 12 1014.8 - 0.0 - - 10 - - - -
27/11:00am 29.9 E 8 11 1015.2 - 0.0 - - 10 - - - -
27/10:30am 29.3 ENE 8 11 1015.4 - 0.0 - - 10 - - - -
27/10:00am 28.7 E 6 11 1015.7 - 0.0 - - 10 - - - -
27/09:30am 28.9 ENE 7 11 1015.9 - 0.0 - - 10 - - - -
27/09:00am 27.7 NE 5 8 1016.2 - 0.0 - Mostly clear 10 - - - -
27/08:30am 27.0 E 6 9 1016.3 - 0.0 - - 10 - - - -
27/08:00am 26.6 E 8 11 1016.5 - 0.0 - - 10 - - - -
27/07:30am 26.0 ENE 5 8 1016.5 - 0.0 - - 10 - - - -
27/07:00am 26.3 ENE 5 9 1016.5 - 0.0 - - 10 - - - -
27/06:30am 25.6 E 7 9 1016.0 - 0.0 - - 10 - - - -
27/06:00am 24.3 E 6 8 1015.7 - 0.0 - - 10 - - - -
27/05:30am 23.9 E 4 6 1015.4 - 0.0 - Partly cloudy 10 - - - -
27/05:00am 23.5 E 5 7 1015.2 - 0.0 - Partly cloudy 10 - - - -
27/04:30am 23.4 NE 5 6 1014.9 - 0.0 - - 10 - - - -
27/04:00am 23.5 NE 6 9 1014.5 - 0.0 - - 10 - - - -
27/03:30am 23.5 NE 7 9 1014.3 - 0.0 - - 10 - - - -
27/03:00am 23.7 NE 7 9 1014.5 - 0.0 - - 10 - - - -
27/02:30am 23.8 NE 5 7 1014.7 - 0.0 - - 10 - - - -
27/02:00am 23.7 ENE 6 8 1014.7 - 0.0 - - 10 - - - -
27/01:30am 23.6 ENE 6 8 1015.1 - 0.0 - - 10 - - - -
27/01:00am 23.9 ENE 7 10 1015.3 - 0.0 - Partly cloudy 10 - - - -
27/12:30am 24.0 ENE 7 11 1015.7 - 0.0 - Partly cloudy 10 - - - -
27/12:00am 24.1 ENE 5 7 1016.1 - 0.0 - Cloudy 10 - - - -
 
Date/Time
EST
Temp

°C
Wind Pressure Rain
since 9am
mm
Weather Cloud Vis
km
Sea
Height
m
Swell
Dir
 
Speed
knots
Gust
knots
hPa Trend Height
m
Period
s
Dir
26/11:30pm 23.8 E 5 7 1016.5 - 0.0 - Partly cloudy 10 - - - -
26/11:00pm 24.1 E 6 9 1016.9 - 0.0 - Partly cloudy 10 - - - -
26/10:30pm 24.3 E 7 10 1017.0 - 0.0 - Partly cloudy 10 - - - -
26/10:00pm 24.4 E 6 9 1017.0 - 0.0 - Partly cloudy 10 - - - -
26/09:30pm 24.4 E 7 10 1016.8 - 0.0 - - 10 - - - -
26/09:00pm 24.5 E 8 12 1016.4 - 0.0 - - 10 - - - -
26/08:30pm 24.6 E 9 13 1016.1 - 0.0 - - 10 - - - -
26/08:00pm 24.6 E 9 13 1016.2 - 0.0 - - 10 - - - -
26/07:30pm 24.7 E 8 10 1016.1 - 0.0 - - 10 - - - -
26/07:00pm 25.0 E 9 13 1015.7 - 0.0 - - 10 - - - -
26/06:30pm 25.4 E 10 13 1015.5 - 0.0 - - 10 - - - -
26/06:00pm 26.0 E 9 12 1015.6 - 0.0 - - 10 - - - -
26/05:30pm 26.8 ESE 10 14 1015.2 - 0.0 - - 10 - - - -
26/05:00pm 28.3 E 10 13 1014.7 - 0.0 - - 10 - - - -
26/04:30pm 28.6 E 11 15 1014.2 - 0.0 - - 10 - - - -
26/04:00pm 29.5 NE 9 15 1013.9 - 0.0 - - 10 - - - -
26/03:30pm 29.1 NNE 10 13 1014.0 - 0.0 - - 10 - - - -
26/03:00pm 29.4 NE 11 14 1014.0 - 0.0 - - 10 - - - -
26/02:30pm 29.9 NNE 10 15 1014.1 - 0.0 - - 10 - - - -
26/02:00pm 29.7 NNE 11 15 1014.3 - 0.0 - - 10 - - - -
26/01:30pm 30.3 N 11 16 1014.6 - 0.0 - - 10 - - - -
26/01:00pm 30.0 NNE 10 15 1014.8 - 0.0 - - 10 - - - -
26/12:30pm 29.7 NNE 9 13 1015.5 - 0.0 - - 10 - - - -
26/12:00pm 30.1 N 10 15 1015.6 - 0.0 - - 10 - - - -
26/11:30am 29.7 N 9 12 1015.7 - 0.0 - Partly cloudy 10 - - - -
26/11:00am 29.7 NNE 9 13 1015.8 - 0.0 - Partly cloudy 10 - - - -
26/10:30am 28.6 E 8 11 1016.1 - 0.0 - Partly cloudy 10 - - - -
26/10:00am 28.4 NE 9 13 1016.3 - 0.0 - - 10 - - - -
26/09:30am 28.2 NE 9 15 1016.4 - 0.0 - - 10 - - - -
26/09:00am 28.6 ENE 7 10 1016.7 - 0.0 - - 10 - - - -
26/08:30am 27.7 E 7 10 1016.7 - 0.0 - - 10 - - - -
26/08:00am 26.5 ENE 8 11 1016.5 - 0.0 - - 10 - - - -
26/07:30am 26.8 E 8 11 1016.5 - 0.0 - - 10 - - - -
26/07:00am 26.1 ENE 8 11 1016.4 - 0.0 - - 10 - - - -
26/06:30am 25.5 ENE 6 8 1016.2 - 0.0 - Partly cloudy 10 - - - -
26/06:00am 25.0 E 7 9 1015.9 - 0.0 - - 8 - - - -
26/05:30am 24.2 ENE 6 8 1015.7 - 0.0 - - 10 - - - -
26/05:00am 23.4 E 6 7 1015.5 - 0.0 - Partly cloudy 10 - - - -
26/04:30am 23.9 ENE 6 7 1015.3 - 0.0 - Partly cloudy 10 - - - -
26/04:00am 23.8 ENE 6 7 1015.1 - 0.0 - Partly cloudy 10 - - - -
26/03:30am 23.8 ENE 5 7 1014.9 - 0.0 - Partly cloudy 10 - - - -
26/03:00am 24.2 ENE 6 7 1014.8 - 0.0 - Mostly cloudy 10 - - - -
26/02:30am 24.1 ENE 7 11 1014.8 - 0.0 - Partly cloudy 10 - - - -
26/02:00am 24.2 ENE 7 10 1015.0 - 0.0 - - 10 - - - -
26/01:30am 24.2 E 7 10 1015.2 - 0.0 - - 10 - - - -
26/01:00am 24.3 ENE 7 10 1015.6 - 0.0 - Partly cloudy 10 - - - -
26/12:30am 24.6 ENE 7 10 1015.6 - 0.0 - Partly cloudy 10 - - - -
26/12:00am 25.0 ENE 9 12 1015.5 - 0.0 - Cloudy 10 - - - -
 
Date/Time
EST
Temp

°C
Wind Pressure Rain
since 9am
mm
Weather Cloud Vis
km
Sea
Height
m
Swell
Dir
 
Speed
knots
Gust
knots
hPa Trend Height
m
Period
s
Dir
25/11:30pm 25.2 NNE 9 14 1015.6 - 0.0 - Partly cloudy 10 - - - -
25/11:00pm 25.1 NNE 9 13 1015.7 - 0.0 - Partly cloudy 10 - - - -
25/10:30pm 25.3 NNE 9 12 1015.7 - 0.0 - Partly cloudy 10 - - - -

Other Formats:

Comma delimited format used in spreadsheet applications
http://www.bom.gov.au/fwo/IDQ60701/IDQ60701.95565.axf

JavaScript Object Notation format (JSON) in row-major order
http://www.bom.gov.au/fwo/IDQ60701/IDQ60701.95565.json